Time;durP1;ratioP1;P1;durP2;ratioP2;P2;SDS_P1;SDS_P2;PMS_P1;PMS_P2;Temp;Humidity;BMP_temperature;BMP_pressure;BME280_temperature;BME280_humidity;BME280_pressure;Samples;Min_cycle;Max_cycle;Signal;HPM_P1;HPM_P2
2022/03/22 00:02:18;;;;;;;48.03;21.27;;;;;;;8.23;50.94;102145.69;5076913;28;20107;-43
2022/03/22 00:04:44;;;;;;;38.08;20.00;;;;;;;8.19;51.66;102133.53;5076568;28;20071;-43
2022/03/22 00:07:10;;;;;;;37.85;20.50;;;;;;;8.26;50.95;102142.72;5076418;28;20538;-43
2022/03/22 00:09:36;;;;;;;30.73;19.02;;;;;;;8.31;50.81;102143.97;5076859;28;20060;-43
2022/03/22 00:12:03;;;;;;;40.20;20.20;;;;;;;8.29;51.00;102142.44;5076434;28;20064;-44
2022/03/22 00:14:28;;;;;;;43.17;21.95;;;;;;;8.16;52.01;102142.69;5076276;28;20484;-45
2022/03/22 00:16:54;;;;;;;44.42;20.25;;;;;;;8.03;52.17;102131.38;5077096;28;20032;-42
2022/03/22 00:19:20;;;;;;;35.58;20.45;;;;;;;8.05;52.75;102142.78;5075054;28;20029;-43
2022/03/22 00:21:46;;;;;;;42.85;22.42;;;;;;;8.05;53.08;102134.75;5074921;28;20028;-42
2022/03/22 00:24:12;;;;;;;38.63;20.88;;;;;;;8.05;52.60;102138.28;5075231;28;20043;-43
2022/03/22 00:26:38;;;;;;;45.90;23.38;;;;;;;8.00;53.60;102142.34;5075181;28;20028;-44
2022/03/22 00:29:04;;;;;;;44.20;22.33;;;;;;;7.88;53.86;102138.94;5076399;28;20029;-42
2022/03/22 00:31:30;;;;;;;41.40;22.85;;;;;;;7.94;54.14;102141.91;5075944;28;20020;-45
2022/03/22 00:33:56;;;;;;;41.58;24.25;;;;;;;7.93;54.50;102142.91;5076770;28;20028;-43
2022/03/22 00:36:22;;;;;;;45.35;23.33;;;;;;;7.95;54.05;102140.09;5076406;28;20081;-43
2022/03/22 00:38:49;;;;;;;38.92;21.55;;;;;;;7.85;54.88;102132.00;5076390;28;20484;-47
2022/03/22 00:41:16;;;;;;;48.10;23.45;;;;;;;7.93;54.86;102140.22;5075246;28;20020;-43
2022/03/22 00:43:43;;;;;;;42.97;23.60;;;;;;;7.94;55.38;102149.09;5075772;28;20115;-43
2022/03/22 00:46:09;;;;;;;42.70;21.60;;;;;;;7.93;55.56;102155.41;5076761;28;20079;-45
2022/03/22 00:48:35;;;;;;;38.63;21.35;;;;;;;7.93;55.02;102156.28;5075232;28;20041;-45
2022/03/22 00:51:01;;;;;;;46.13;24.05;;;;;;;7.91;55.35;102152.00;5076514;28;20423;-42
2022/03/22 00:53:27;;;;;;;46.70;24.50;;;;;;;7.80;56.50;102147.63;5075898;28;20503;-45
2022/03/22 00:55:53;;;;;;;47.35;25.08;;;;;;;7.83;55.27;102158.03;5074190;28;20032;-45
2022/03/22 00:58:19;;;;;;;46.40;24.58;;;;;;;7.81;55.90;102148.47;5076023;28;20031;-45
2022/03/22 01:00:46;;;;;;;47.55;27.75;;;;;;;7.79;56.53;102137.06;5074269;28;20422;-46
2022/03/22 01:03:12;;;;;;;54.08;28.13;;;;;;;7.86;57.35;102147.09;5076285;28;20036;-43
2022/03/22 01:05:38;;;;;;;57.35;30.50;;;;;;;7.83;58.21;102151.84;5076191;28;20021;-42
2022/03/22 01:08:07;;;;;;;56.25;29.60;;;;;;;7.83;57.93;102150.00;5075861;28;20035;-43
2022/03/22 01:10:36;;;;;;;59.60;30.88;;;;;;;7.81;57.98;102145.78;5075268;28;20380;-44
2022/03/22 01:13:02;;;;;;;52.30;30.13;;;;;;;7.87;56.97;102147.94;5075597;28;20043;-45
2022/03/22 01:15:32;;;;;;;48.70;27.85;;;;;;;7.85;56.67;102149.88;5075462;28;20184;-44
2022/03/22 01:17:59;;;;;;;51.80;29.92;;;;;;;7.83;56.48;102146.50;5075054;28;20063;-42
2022/03/22 01:20:26;;;;;;;46.40;28.60;;;;;;;7.79;57.13;102145.94;5073812;28;20123;-42
2022/03/22 01:22:53;;;;;;;50.58;28.17;;;;;;;7.67;57.60;102131.81;5075255;28;20039;-43
2022/03/22 01:25:25;;;;;;;57.20;31.77;;;;;;;7.69;57.61;102142.34;5075220;28;20078;-46
2022/03/22 01:27:52;;;;;;;55.85;31.50;;;;;;;7.71;57.67;102148.44;5074234;28;20028;-41
2022/03/22 01:30:20;;;;;;;61.40;30.67;;;;;;;7.63;57.93;102141.03;5074010;28;20147;-44
2022/03/22 01:32:48;;;;;;;53.28;30.55;;;;;;;7.59;58.37;102138.78;5090812;28;20020;-42
2022/03/22 01:35:14;;;;;;;61.53;33.75;;;;;;;7.59;59.24;102131.59;5076581;28;20058;-41
2022/03/22 01:37:39;;;;;;;70.38;37.20;;;;;;;7.55;60.65;102128.34;5076001;28;20064;-42
2022/03/22 01:40:07;;;;;;;64.78;34.58;;;;;;;7.54;60.22;102136.50;5075769;28;20025;-42
2022/03/22 01:42:34;;;;;;;63.10;34.45;;;;;;;7.49;59.99;102122.69;5073938;28;20533;-41
2022/03/22 01:45:01;;;;;;;70.93;35.65;;;;;;;7.51;60.83;102129.59;5075322;28;20144;-41
2022/03/22 01:47:28;;;;;;;66.80;35.63;;;;;;;7.41;60.55;102118.03;5074920;28;20066;-41
2022/03/22 01:49:54;;;;;;;76.55;39.58;;;;;;;7.47;60.65;102125.50;5073655;28;20032;-41
2022/03/22 01:52:22;;;;;;;80.88;42.78;;;;;;;7.49;62.62;102123.53;5074914;28;20037;-42
2022/03/22 01:54:50;;;;;;;91.15;45.72;;;;;;;7.45;63.40;102111.44;5056989;28;20030;-42
2022/03/22 01:57:17;;;;;;;83.75;41.47;;;;;;;7.44;63.22;102120.41;5073482;28;20028;-42
2022/03/22 01:59:44;;;;;;;89.18;44.72;;;;;;;7.44;63.08;102111.56;5074657;28;20060;-42
2022/03/22 02:07:44;;;;;;;77.53;40.63;;;;;;;7.42;63.10;102113.50;5073733;28;20033;-41
2022/03/22 02:10:11;;;;;;;81.82;40.83;;;;;;;7.35;63.02;102105.16;5073516;28;20067;-42
2022/03/22 02:12:37;;;;;;;80.57;42.40;;;;;;;7.38;62.88;102112.09;5072998;28;20045;-42
2022/03/22 02:15:04;;;;;;;81.63;42.90;;;;;;;7.38;62.48;102110.25;5072812;28;20063;-43
2022/03/22 02:17:30;;;;;;;73.03;39.75;;;;;;;7.39;62.51;102103.06;5074261;28;20113;-42
2022/03/22 02:19:57;;;;;;;75.53;41.22;;;;;;;7.41;62.15;102101.13;5074228;28;20472;-43
2022/03/22 02:22:33;;;;;;;87.38;42.35;;;;;;;7.24;62.84;102086.53;5074008;28;20028;-42
2022/03/22 02:24:58;;;;;;;80.20;41.95;;;;;;;7.34;63.94;102101.66;5073094;28;20035;-42
2022/03/22 02:27:27;;;;;;;82.25;44.15;;;;;;;7.29;63.69;102090.50;5074096;28;20029;-45
2022/03/22 02:29:53;;;;;;;78.40;43.30;;;;;;;7.25;63.69;102093.59;5073740;28;20036;-43
2022/03/22 02:32:23;;;;;;;82.85;41.72;;;;;;;7.23;63.63;102091.03;5074274;28;20048;-41
2022/03/22 02:34:49;;;;;;;89.47;45.03;;;;;;;7.33;64.78;102093.75;5074097;28;20032;-43
2022/03/22 02:37:15;;;;;;;83.22;43.15;;;;;;;7.30;63.92;102097.56;5072383;28;20047;-42
2022/03/22 02:39:41;;;;;;;82.63;42.95;;;;;;;7.35;63.91;102099.81;5073961;28;20433;-41
2022/03/22 02:42:07;;;;;;;80.88;42.90;;;;;;;7.31;63.76;102090.38;5072370;28;20380;-43
2022/03/22 02:44:33;;;;;;;76.22;42.20;;;;;;;7.22;63.82;102080.47;5089146;28;20029;-43
2022/03/22 02:46:59;;;;;;;83.18;44.67;;;;;;;7.19;64.46;102089.63;5073828;28;20032;-41
2022/03/22 02:49:25;;;;;;;91.43;44.63;;;;;;;7.20;64.84;102087.78;5073800;28;20043;-45
2022/03/22 02:51:50;;;;;;;73.95;41.05;;;;;;;7.15;64.96;102077.47;5072506;28;20060;-44
2022/03/22 02:54:16;;;;;;;75.93;40.63;;;;;;;6.94;63.87;102043.59;5074088;28;20059;-43
2022/03/22 02:56:42;;;;;;;83.47;45.13;;;;;;;7.23;65.17;102080.34;5073179;28;20028;-41
2022/03/22 02:59:08;;;;;;;83.63;43.78;;;;;;;7.28;64.74;102078.13;5073623;28;20093;-41
2022/03/22 03:01:34;;;;;;;89.28;47.42;;;;;;;7.32;65.64;102073.38;5073731;28;20361;-45
2022/03/22 03:04:00;;;;;;;89.85;48.28;;;;;;;7.39;64.56;102079.03;5073802;28;20041;-43
2022/03/22 03:06:30;;;;;;;84.75;46.70;;;;;;;7.40;63.91;102083.41;5073687;28;20032;-42
2022/03/22 03:08:58;;;;;;;88.25;46.97;;;;;;;7.38;64.23;102072.00;5073878;28;20027;-41
2022/03/22 03:11:26;;;;;;;91.88;46.88;;;;;;;7.40;65.54;102078.06;5072423;28;20603;-41
2022/03/22 03:16:40;;;;;;;97.82;48.17;;;;;;;7.39;65.53;102069.16;5072598;28;20040;-41
2022/03/22 03:19:06;;;;;;;90.93;48.42;;;;;;;7.39;65.60;102071.84;5073700;28;20040;-47
2022/03/22 03:21:33;;;;;;;88.40;45.38;;;;;;;7.35;65.22;102052.59;5074006;28;20041;-44
2022/03/22 03:24:00;;;;;;;91.65;44.88;;;;;;;7.43;65.63;102061.72;5076965;28;20504;-43
2022/03/22 03:26:26;;;;;;;96.72;48.83;;;;;;;7.41;66.41;102063.69;5078196;28;20033;-42
2022/03/22 03:28:51;;;;;;;98.32;50.78;;;;;;;7.47;66.98;102071.19;5076320;28;20610;-46
2022/03/22 03:31:17;;;;;;;98.68;49.03;;;;;;;7.41;66.27;102061.88;5076029;28;20107;-49
2022/03/22 03:33:43;;;;;;;97.45;49.38;;;;;;;7.38;66.76;102067.50;5077778;28;20070;-42
2022/03/22 03:36:09;;;;;;;89.35;46.95;;;;;;;7.32;65.64;102066.19;5060273;28;20109;-43
2022/03/22 03:38:41;;;;;;;90.32;49.13;;;;;;;7.31;66.62;102072.50;5060605;28;20425;-43
2022/03/22 03:43:41;;;;;;;81.13;43.33;;;;;;;7.21;66.07;102065.44;5077738;28;20426;-43
2022/03/22 03:48:53;;;;;;;102.80;50.58;;;;;;;7.22;66.75;102061.78;5075831;28;20064;-41
2022/03/22 03:51:19;;;;;;;101.38;50.88;;;;;;;7.25;67.70;102062.34;5077438;28;20029;-43
2022/03/22 03:53:45;;;;;;;110.15;54.72;;;;;;;7.22;67.91;102069.78;5076912;28;20040;-43
2022/03/22 03:56:11;;;;;;;93.78;47.72;;;;;;;7.21;67.43;102068.97;5076657;28;20121;-42
2022/03/22 03:58:37;;;;;;;104.57;51.10;;;;;;;7.14;67.73;102057.94;5077114;28;20104;-42
2022/03/22 04:01:03;;;;;;;109.97;54.15;;;;;;;7.18;68.66;102077.22;5076779;28;20029;-47
2022/03/22 04:03:29;;;;;;;99.47;52.03;;;;;;;7.15;67.32;102066.78;5075671;28;20476;-42
2022/03/22 04:05:55;;;;;;;100.28;51.28;;;;;;;7.13;68.37;102060.72;5059180;28;20040;-42
2022/03/22 04:08:20;;;;;;;104.07;53.78;;;;;;;7.16;68.41;102077.34;5076002;28;20082;-41
2022/03/22 04:10:46;;;;;;;107.95;54.95;;;;;;;7.18;67.98;102082.56;5076743;28;20033;-42
2022/03/22 04:13:12;;;;;;;101.20;51.78;;;;;;;7.16;68.08;102079.19;5075576;28;20095;-41
2022/03/22 04:15:38;;;;;;;102.13;50.50;;;;;;;7.13;67.70;102088.31;5076768;28;20381;-41
2022/03/22 04:18:04;;;;;;;115.80;55.58;;;;;;;7.09;68.08;102091.38;5076196;28;20037;-42
2022/03/22 04:20:30;;;;;;;104.07;53.22;;;;;;;7.04;68.27;102086.44;5076345;28;20032;-41
2022/03/22 04:22:55;;;;;;;95.15;46.47;;;;;;;7.06;67.68;102099.66;5075396;28;20434;-42
2022/03/22 04:25:21;;;;;;;102.55;50.90;;;;;;;7.01;67.49;102096.53;5076669;28;20468;-42
2022/03/22 04:33:18;;;;;;;107.68;53.05;;;;;;;7.00;69.04;102111.69;5075291;28;20090;-42
2022/03/22 04:35:45;;;;;;;111.88;55.75;;;;;;;6.96;68.31;102105.78;5076539;28;20107;-43
2022/03/22 04:38:10;;;;;;;110.45;54.78;;;;;;;6.94;68.75;102106.88;5075465;28;20038;-44
2022/03/22 04:40:39;;;;;;;114.55;54.70;;;;;;;6.91;68.04;102110.66;5076571;28;20024;-44
2022/03/22 04:43:06;;;;;;;99.65;51.60;;;;;;;6.86;68.92;102106.69;5077333;28;20037;-41
2022/03/22 04:45:32;;;;;;;108.85;56.15;;;;;;;6.87;68.71;102106.56;5075460;28;20029;-44
2022/03/22 04:47:58;;;;;;;111.75;56.10;;;;;;;6.90;69.23;102105.44;5075085;28;20389;-43
2022/03/22 04:50:24;;;;;;;106.00;53.70;;;;;;;6.90;68.95;102108.09;5074389;28;20495;-41
2022/03/22 04:56:43;;;;;;;109.50;54.35;;;;;;;6.92;70.03;102106.16;5074572;28;20400;-44
2022/03/22 04:58:22;;;;;;;112.82;55.42;;;;;;;6.91;70.13;102093.75;5074647;28;20127;-43
2022/03/22 05:00:48;;;;;;;117.15;58.85;;;;;;;6.96;69.99;102095.09;5074975;28;20020;-44
2022/03/22 05:03:14;;;;;;;108.53;53.97;;;;;;;6.98;69.29;102103.81;5074365;28;20115;-43
2022/03/22 05:08:25;;;;;;;121.78;60.05;;;;;;;7.01;69.52;102086.69;5074718;28;20032;-45
2022/03/22 05:10:55;;;;;;;110.28;55.03;;;;;;;7.09;68.85;102102.88;5073914;28;20080;-44
2022/03/22 05:13:20;;;;;;;110.82;57.47;;;;;;;7.13;69.04;102100.81;5074335;28;20029;-44
2022/03/22 05:15:47;;;;;;;113.50;57.42;;;;;;;7.10;69.61;102101.94;5075587;28;20504;-42
2022/03/22 05:18:13;;;;;;;101.82;52.63;;;;;;;7.13;68.10;102101.69;5074041;28;20066;-42
2022/03/22 05:20:39;;;;;;;121.50;58.70;;;;;;;7.18;68.61;102099.44;5074288;28;20476;-45
2022/03/22 05:23:05;;;;;;;113.75;55.00;;;;;;;7.22;69.33;102101.84;5075274;28;20058;-45
2022/03/22 05:25:31;;;;;;;121.75;61.60;;;;;;;7.22;69.69;102102.69;5075534;28;20401;-44
2022/03/22 05:27:59;;;;;;;125.82;60.13;;;;;;;7.23;69.41;102107.06;5075117;28;20028;-43
2022/03/22 05:30:25;;;;;;;104.47;54.92;;;;;;;7.27;69.17;102095.13;5074987;28;20032;-43
2022/03/22 05:32:51;;;;;;;121.22;58.22;;;;;;;7.32;69.45;102106.28;5073962;28;20384;-41
2022/03/22 05:35:16;;;;;;;122.93;58.40;;;;;;;7.34;69.40;102107.00;5074157;28;20419;-43
2022/03/22 05:37:42;;;;;;;125.53;60.10;;;;;;;7.41;69.37;102098.44;5057556;28;20064;-42
2022/03/22 05:40:09;;;;;;;122.43;59.95;;;;;;;7.44;69.50;102103.53;5075593;28;20074;-41
2022/03/22 05:42:43;;;;;;;115.38;59.08;;;;;;;7.42;69.30;102090.28;5075410;28;20040;-41
2022/03/22 05:45:11;;;;;;;115.85;57.80;;;;;;;7.45;69.63;102098.06;5074767;28;20036;-43
2022/03/22 05:47:37;;;;;;;121.72;61.45;;;;;;;7.47;69.44;102093.44;5058115;28;20157;-45
2022/03/22 05:50:05;;;;;;;111.88;56.80;;;;;;;7.44;69.93;102098.19;5075509;28;20111;-44
2022/03/22 05:52:32;;;;;;;116.65;58.70;;;;;;;7.43;69.71;102088.47;5075439;28;20163;-41
2022/03/22 05:54:58;;;;;;;120.47;57.75;;;;;;;7.39;69.30;102097.72;5074264;28;20032;-43
2022/03/22 05:57:24;;;;;;;109.88;55.33;;;;;;;7.36;69.67;102090.84;5075025;28;20032;-44
2022/03/22 05:59:50;;;;;;;121.18;59.08;;;;;;;7.36;70.44;102085.50;5075348;28;20032;-42
2022/03/22 06:02:16;;;;;;;122.45;57.60;;;;;;;7.24;70.33;102081.19;5074625;28;20037;-44
2022/03/22 06:04:41;;;;;;;108.97;55.50;;;;;;;7.17;70.11;102100.44;5074734;28;20045;-41
2022/03/22 06:07:08;;;;;;;111.75;57.08;;;;;;;7.21;70.25;102110.88;5073529;28;20032;-41
2022/03/22 06:09:33;;;;;;;112.10;55.00;;;;;;;7.20;70.03;102104.66;5074821;28;20036;-43
2022/03/22 06:11:59;;;;;;;118.45;57.08;;;;;;;7.24;71.19;102107.91;5074489;28;20067;-42
2022/03/22 06:14:25;;;;;;;116.50;56.60;;;;;;;7.19;70.81;102113.66;5074460;28;20072;-43
2022/03/22 06:16:51;;;;;;;107.65;53.13;;;;;;;7.15;70.38;102105.06;5074602;28;20032;-43
2022/03/22 06:19:16;;;;;;;118.43;57.15;;;;;;;7.12;71.36;102101.81;5073163;28;20034;-46
2022/03/22 06:21:42;;;;;;;127.90;59.10;;;;;;;7.08;72.56;102101.22;5074974;28;20041;-41
2022/03/22 06:24:08;;;;;;;122.38;58.90;;;;;;;7.09;71.03;102107.41;5075021;28;20521;-41
2022/03/22 06:26:34;;;;;;;124.68;58.30;;;;;;;7.05;71.86;102100.63;5074947;28;20377;-41
2022/03/22 06:29:00;;;;;;;115.55;56.72;;;;;;;7.04;71.84;102106.94;5074790;28;20396;-46
2022/03/22 06:31:27;;;;;;;123.25;60.72;;;;;;;6.98;71.54;102094.94;5073628;28;20104;-41
2022/03/22 06:33:53;;;;;;;118.22;56.80;;;;;;;7.03;71.68;102116.78;5075389;28;20051;-41
2022/03/22 06:36:19;;;;;;;115.10;56.33;;;;;;;7.03;71.36;102116.78;5074915;28;20456;-41
2022/03/22 06:38:45;;;;;;;115.35;55.58;;;;;;;7.02;71.75;102116.91;5075728;28;20050;-41
2022/03/22 06:41:11;;;;;;;89.28;45.33;;;;;;;7.03;70.50;102121.28;5074797;28;20036;-42
2022/03/22 06:43:36;;;;;;;111.90;52.55;;;;;;;7.01;70.89;102126.75;5073565;28;20119;-41
2022/03/22 06:46:02;;;;;;;100.43;48.58;;;;;;;7.01;71.21;102118.72;5074086;28;20043;-41
2022/03/22 06:48:28;;;;;;;94.93;46.95;;;;;;;7.01;69.77;102128.56;5074941;28;20105;-41
2022/03/22 06:50:54;;;;;;;101.53;50.22;;;;;;;6.95;71.15;102117.44;5074852;28;20111;-41
2022/03/22 06:53:20;;;;;;;116.68;53.55;;;;;;;6.96;71.13;102132.50;5074922;28;20032;-41
2022/03/22 06:55:46;;;;;;;117.78;55.55;;;;;;;7.03;71.92;102146.16;5073507;28;20457;-42
2022/03/22 06:58:14;;;;;;;111.60;55.80;;;;;;;7.03;72.03;102135.47;5073479;28;20063;-41
2022/03/22 07:00:40;;;;;;;115.80;55.42;;;;;;;7.15;72.15;102139.78;5073329;28;20062;-45
2022/03/22 07:03:06;;;;;;;105.63;52.10;;;;;;;7.18;71.93;102128.81;5073444;28;20037;-42
2022/03/22 07:05:32;;;;;;;113.13;55.03;;;;;;;7.27;71.51;102135.22;5056629;28;20029;-42
2022/03/22 07:07:59;;;;;;;108.88;52.80;;;;;;;7.31;71.22;102139.31;5074475;28;20452;-41
2022/03/22 07:10:25;;;;;;;110.35;53.97;;;;;;;7.36;71.22;102134.44;5090452;28;20510;-42
2022/03/22 07:12:54;;;;;;;122.05;56.42;;;;;;;7.36;71.16;102129.09;5074223;28;20032;-42
2022/03/22 07:15:26;;;;;;;117.78;55.78;;;;;;;7.50;71.33;102148.44;5072725;28;20033;-41
2022/03/22 07:17:52;;;;;;;109.65;53.83;;;;;;;7.53;71.60;102137.50;5073395;28;20028;-47
2022/03/22 07:20:20;;;;;;;95.50;46.78;;;;;;;7.59;70.52;102138.78;5075965;28;20035;-42
2022/03/22 07:22:47;;;;;;;104.22;50.22;;;;;;;7.61;70.63;102137.66;5075256;28;20024;-42
2022/03/22 07:25:13;;;;;;;114.70;53.08;;;;;;;7.71;70.90;102145.75;5075546;28;20040;-42
2022/03/22 07:27:38;;;;;;;106.28;55.70;;;;;;;7.75;71.08;102125.78;5074615;28;20029;-44
2022/03/22 07:30:05;;;;;;;110.93;55.22;;;;;;;7.87;70.26;102131.88;5072574;28;20369;-43
2022/03/22 07:32:31;;;;;;;112.43;52.67;;;;;;;7.95;70.77;102135.56;5073909;28;20029;-43
2022/03/22 07:35:00;;;;;;;113.32;52.60;;;;;;;8.01;70.31;102136.03;5074425;28;20033;-43
2022/03/22 07:37:29;;;;;;;110.20;53.38;;;;;;;8.08;70.20;102135.34;5074289;28;20056;-46
2022/03/22 07:39:57;;;;;;;103.53;51.80;;;;;;;8.16;69.64;102131.97;5073088;28;20040;-43
2022/03/22 07:42:27;;;;;;;111.22;53.00;;;;;;;8.21;69.08;102143.13;5073918;28;20372;-43
2022/03/22 07:44:55;;;;;;;109.85;53.80;;;;;;;8.30;70.05;102144.13;5074195;28;20036;-44
2022/03/22 07:47:22;;;;;;;104.15;51.53;;;;;;;8.37;69.42;102144.44;5072457;28;20029;-44
2022/03/22 07:55:20;;;;;;;112.32;53.63;;;;;;;8.60;69.19;102150.41;5072872;28;20062;-45
2022/03/22 07:57:46;;;;;;;102.82;49.72;;;;;;;8.74;68.23;102154.53;5072848;28;20032;-43
2022/03/22 08:00:13;;;;;;;101.70;47.78;;;;;;;8.91;67.80;102146.66;5073844;28;20036;-43
2022/03/22 08:02:51;;;;;;;97.03;49.50;;;;;;;9.07;67.43;102146.06;5073648;28;20016;-42
2022/03/22 08:05:18;;;;;;;102.35;47.42;;;;;;;9.24;66.59;102160.56;5058157;28;20036;-44
2022/03/22 08:08:05;;;;;;;98.18;50.00;;;;;;;9.36;66.41;102161.28;5074832;28;20040;-44
2022/03/22 08:14:04;;;;;;;90.22;42.10;;;;;;;9.53;65.74;102159.69;5026368;28;20092;-44
2022/03/22 08:16:36;;;;;;;94.20;47.22;;;;;;;9.55;66.19;102155.03;5039056;28;20493;-43
2022/03/22 08:19:06;;;;;;;107.75;49.83;;;;;;;9.62;66.24;102158.81;5054819;28;20041;-41
2022/03/22 08:21:35;;;;;;;90.97;44.47;;;;;;;9.69;65.81;102154.56;5039425;28;20033;-41
2022/03/22 08:24:01;;;;;;;87.10;43.78;;;;;;;9.82;66.09;102162.25;5038147;28;20040;-43
2022/03/22 08:26:28;;;;;;;84.18;41.67;;;;;;;9.88;65.35;102150.97;5054845;28;20478;-46
2022/03/22 08:28:55;;;;;;;82.47;42.60;;;;;;;10.08;65.87;102161.59;5036142;28;20033;-43
2022/03/22 08:31:21;;;;;;;80.72;39.75;;;;;;;10.08;64.60;102138.31;5037128;28;20045;-43
2022/03/22 08:33:47;;;;;;;94.20;42.15;;;;;;;10.26;64.38;102151.75;5036930;28;20385;-43
2022/03/22 08:36:13;;;;;;;91.22;42.65;;;;;;;10.30;63.96;102144.25;5036035;28;20040;-42
2022/03/22 08:38:38;;;;;;;86.32;42.60;;;;;;;10.53;63.36;102168.88;5035711;28;20033;-46
2022/03/22 08:41:04;;;;;;;93.53;43.83;;;;;;;10.69;63.38;102159.31;5052555;28;20116;-47
2022/03/22 08:43:31;;;;;;;85.90;42.67;;;;;;;10.88;62.78;102155.63;5037035;28;20044;-42
2022/03/22 08:45:57;;;;;;;87.60;43.35;;;;;;;11.09;62.95;102160.66;5036783;28;20087;-41
2022/03/22 08:48:27;;;;;;;75.30;37.78;;;;;;;11.20;62.39;102160.44;5037559;28;20393;-44
2022/03/22 08:50:53;;;;;;;72.57;39.53;;;;;;;11.26;62.09;102159.81;5052976;28;20052;-46
2022/03/22 08:53:24;;;;;;;78.65;39.53;;;;;;;11.36;61.38;102168.63;5035576;28;20031;-45
2022/03/22 08:55:52;;;;;;;83.75;39.58;;;;;;;11.47;61.56;102178.28;5036996;28;20034;-41
2022/03/22 08:58:19;;;;;;;77.72;38.00;;;;;;;11.61;61.43;102172.34;5033667;28;20037;-42
2022/03/22 09:00:46;;;;;;;76.18;38.25;;;;;;;11.71;60.80;102168.69;5036441;28;20420;-42
2022/03/22 09:03:11;;;;;;;87.88;41.75;;;;;;;11.90;60.04;102181.94;5052056;28;20339;-42
2022/03/22 09:08:24;;;;;;;74.32;37.33;;;;;;;12.37;58.87;102177.97;5021578;28;20397;-44
2022/03/22 09:10:51;;;;;;;76.55;38.38;;;;;;;12.68;59.12;102164.72;5036587;28;20029;-45
2022/03/22 09:13:18;;;;;;;69.50;36.92;;;;;;;13.01;57.92;102174.72;5063364;28;20052;-49
2022/03/22 09:15:46;;;;;;;70.22;36.80;;;;;;;13.27;56.61;102183.47;5076285;28;20028;-42
2022/03/22 09:18:13;;;;;;;63.80;33.83;;;;;;;13.53;55.89;102179.78;5074578;28;20155;-43
2022/03/22 09:20:39;;;;;;;67.95;36.00;;;;;;;13.75;55.45;102172.81;5075456;28;20039;-43
2022/03/22 09:23:12;;;;;;;59.83;34.22;;;;;;;13.99;55.25;102171.91;5077348;28;20041;-46
2022/03/22 09:25:41;;;;;;;62.10;33.08;;;;;;;14.36;55.02;102169.53;5078265;28;20052;-43
2022/03/22 09:28:26;;;;;;;70.07;35.35;;;;;;;14.62;54.35;102166.59;5075225;28;20042;-43
2022/03/22 09:30:52;;;;;;;66.45;34.25;;;;;;;16.23;50.67;102163.53;5077733;28;20027;-44
2022/03/22 09:33:26;;;;;;;63.83;34.17;;;;;;;17.60;45.67;102164.44;5077888;28;20028;-49
2022/03/22 09:35:57;;;;;;;58.85;31.63;;;;;;;18.27;44.63;102162.97;5076398;28;20060;-42
2022/03/22 09:38:24;;;;;;;58.70;32.80;;;;;;;19.09;43.08;102165.69;5076447;28;20041;-48
2022/03/22 09:41:01;;;;;;;55.03;32.25;;;;;;;19.66;43.16;102157.91;5075859;28;20120;-44
2022/03/22 09:43:29;;;;;;;51.25;29.55;;;;;;;20.44;40.09;102138.75;5077510;28;20067;-44
2022/03/22 09:45:57;;;;;;;48.53;28.98;;;;;;;21.56;39.83;102151.81;5077883;28;20040;-43
2022/03/22 09:51:48;;;;;;;42.20;27.30;;;;;;;22.48;39.12;102148.22;5077402;28;20052;-44
2022/03/22 09:54:17;;;;;;;45.03;29.30;;;;;;;22.81;37.43;102133.19;5077612;28;20028;-46
2022/03/22 09:56:45;;;;;;;46.55;27.05;;;;;;;23.15;37.13;102139.00;5077411;28;20029;-43
2022/03/22 09:59:14;;;;;;;34.42;23.77;;;;;;;23.99;34.71;102121.41;5092346;28;20040;-41
2022/03/22 10:01:41;;;;;;;40.28;24.30;;;;;;;24.41;33.43;102126.63;5075286;28;20108;-52
2022/03/22 10:04:13;;;;;;;39.05;24.33;;;;;;;24.52;33.17;102123.03;5090612;28;20028;-43
2022/03/22 10:06:51;;;;;;;42.80;24.83;;;;;;;24.19;31.38;102126.47;5073342;28;20383;-44
2022/03/22 10:09:36;;;;;;;33.45;22.85;;;;;;;25.17;31.77;102118.06;5073975;28;20024;-43
2022/03/22 10:12:03;;;;;;;26.63;20.42;;;;;;;25.58;31.46;102111.25;5073651;28;20550;-41
2022/03/22 10:14:35;;;;;;;37.45;22.90;;;;;;;25.49;28.55;102110.84;5074960;28;20495;-46
2022/03/22 10:17:16;;;;;;;32.45;20.48;;;;;;;25.75;28.18;102105.69;5075188;28;20028;-43
2022/03/22 10:19:45;;;;;;;27.40;19.55;;;;;;;26.23;30.78;102108.75;5041935;28;20411;-44
2022/03/22 10:22:12;;;;;;;26.25;16.90;;;;;;;26.63;31.74;102102.00;5073929;28;20037;-44
2022/03/22 10:24:42;;;;;;;32.03;21.42;;;;;;;26.72;26.71;102107.88;5073716;28;20072;-45
2022/03/22 10:27:27;;;;;;;31.30;22.05;;;;;;;26.42;27.37;102110.03;5075047;28;20036;-41
2022/03/22 10:29:54;;;;;;;26.90;19.00;;;;;;;27.03;31.07;102106.19;5073667;28;20604;-44
2022/03/22 10:32:44;;;;;;;28.58;19.35;;;;;;;27.69;26.89;102111.31;5074645;28;20039;-45
2022/03/22 10:35:13;;;;;;;34.85;20.67;;;;;;;27.41;27.15;102104.25;5056803;28;20028;-44
2022/03/22 10:37:41;;;;;;;29.05;18.30;;;;;;;27.50;28.46;102107.34;5074536;28;20118;-45
2022/03/22 10:40:29;;;;;;;22.48;17.40;;;;;;;27.79;25.83;102102.25;5074644;28;20473;-43
2022/03/22 10:42:58;;;;;;;25.75;18.15;;;;;;;27.48;27.41;102107.59;5073371;28;20036;-44
2022/03/22 10:45:27;;;;;;;23.70;16.90;;;;;;;27.97;26.00;102107.31;5075174;28;20032;-42
2022/03/22 10:47:55;;;;;;;23.80;18.92;;;;;;;27.85;26.51;102103.09;5074216;28;20028;-42
2022/03/22 10:50:20;;;;;;;23.85;16.85;;;;;;;28.39;24.52;102102.69;5072907;28;20039;-44
2022/03/22 10:52:51;;;;;;;26.98;17.92;;;;;;;28.62;24.91;102098.63;5072645;28;20025;-43
2022/03/22 10:55:20;;;;;;;26.55;18.65;;;;;;;28.44;25.34;102091.66;5074450;28;20028;-48
2022/03/22 10:57:48;;;;;;;21.65;15.82;;;;;;;29.13;24.81;102089.44;5074270;28;20028;-43
2022/03/22 11:00:15;;;;;;;22.95;17.70;;;;;;;29.50;25.20;102094.63;5072692;28;20522;-43
2022/03/22 11:02:42;;;;;;;22.15;17.60;;;;;;;29.59;25.22;102083.81;5073889;28;20380;-44
2022/03/22 11:05:08;;;;;;;27.88;17.80;;;;;;;29.52;24.82;102075.78;5074037;28;20102;-43
2022/03/22 11:07:37;;;;;;;27.80;18.13;;;;;;;28.72;24.39;102084.78;5073885;28;20025;-43
2022/03/22 11:10:04;;;;;;;22.20;16.45;;;;;;;28.76;25.13;102079.53;5073907;28;20032;-43
2022/03/22 11:12:30;;;;;;;22.13;15.68;;;;;;;28.95;25.96;102074.25;5072679;28;20044;-46
2022/03/22 11:14:58;;;;;;;20.60;16.58;;;;;;;29.32;23.63;102076.69;5074407;28;20086;-43
2022/03/22 11:17:34;;;;;;;18.90;13.80;;;;;;;29.36;24.75;102078.91;5074524;28;20032;-42
2022/03/22 11:20:13;;;;;;;23.73;16.05;;;;;;;29.36;25.34;102079.72;5074093;28;20111;-43
2022/03/22 11:23:00;;;;;;;21.10;15.85;;;;;;;29.67;23.78;102074.09;5001037;28;20453;-49
2022/03/22 11:25:45;;;;;;;21.17;15.70;;;;;;;29.19;23.41;102077.28;5013885;28;20049;-44
2022/03/22 11:28:16;;;;;;;19.30;13.80;;;;;;;29.96;23.73;102074.25;5053797;28;20043;-43
2022/03/22 11:30:46;;;;;;;23.60;14.88;;;;;;;30.33;22.77;102072.09;5091048;28;20473;-42
2022/03/22 11:36:15;;;;;;;18.67;15.27;;;;;;;29.53;22.91;102071.06;5073583;28;20036;-44
2022/03/22 11:38:50;;;;;;;20.45;14.68;;;;;;;29.62;23.07;102072.16;5072801;28;20035;-46
2022/03/22 11:44:39;;;;;;;21.73;14.80;;;;;;;28.73;22.53;102080.06;5075271;28;20037;-42
2022/03/22 11:47:15;;;;;;;16.33;13.43;;;;;;;29.13;21.28;102068.16;5076559;28;20036;-43
2022/03/22 11:50:03;;;;;;;23.08;13.68;;;;;;;28.82;22.11;102072.06;5077905;28;20032;-45
2022/03/22 11:52:39;;;;;;;17.38;12.63;;;;;;;28.39;22.39;102075.88;5076693;28;20071;-44
2022/03/22 11:55:23;;;;;;;19.33;15.00;;;;;;;27.83;23.36;102075.75;5077903;28;20036;-46
2022/03/22 11:57:51;;;;;;;15.32;13.00;;;;;;;28.70;22.82;102078.72;5077854;28;20029;-43
2022/03/22 12:00:20;;;;;;;15.93;13.25;;;;;;;28.50;23.36;102062.09;5076428;28;20078;-44
2022/03/22 12:02:54;;;;;;;18.27;14.48;;;;;;;28.39;23.58;102069.53;5077648;28;20082;-43